Aérodrome :
LOGIN :

S'inscrire | Disclaimer

   EN    FR    IT 

 










Légende :    VFR   VFR Marginal   IFR   IFR Intensif   IFR Très Intensif
Visi : 
Plafond : 
>= 8 km
>= 3000ft
5 à 8 km
1000 à 3000 ft
1500m à 5 km
500 à 1000 ft
800 à 1500m
200 à 500 ft
< 800m
< 200 ft
Symboles :   Orages  Brouillard  Fortes neiges  Fortes précipitations  Vent > 20 kt
SIGMETs :   Divers  Orages  Givrage  Turbulence  Onde Orograph.  Cendres Volcan.






- Altitude de l'aérodrome : 194 ft
- Code IATA : LME


LFRM - Le Mans

DERNIER METAR :
  • 040630Z AUTO VRB03KT CAVOK 16/12 Q1023 NOSIG

METARs EXPIRÉS :
  • 040600Z AUTO VRB02KT CAVOK 15/11 Q1023 NOSIG
  • 040530Z AUTO VRB01KT CAVOK 13/11 Q1023
  • 040500Z AUTO 16003KT CAVOK 11/10 Q1023
  • 040430Z AUTO VRB01KT CAVOK 11/10 Q1023
  • 040400Z AUTO VRB01KT CAVOK 12/10 Q1022

TAF TAF LFRM
Valide du 04 à 06h jusqu'au 05 à 06h UTC


040500Z 0406/0506 VRB03KT CAVOK
BECMG 0416/0418 34008KT



MET'MAP, la Météo Aéronautique d'un coup d'oeil ! - Copyright ORBIFLY Décembre 2007 - Disclaimer

ORBIFLY MET'MAP TEAM :

Programmation & Développement : Alexandra Zaïnal
Sur une idée originale de : Baudouin d'Aumeries
Soutien technique & logistique : Manuel Goepfert
Assistance : Marc-Olivier Méhu




SOURCES & CREDITS :

   NOAA